sensor_id;sensor_type;location;lat;lon;timestamp;P1;durP1;ratioP1;P2;durP2;ratioP2
33593;SDS011;19920;52.242;20.940;2023-08-08T00:01:42;4.13;;;1.92;;
33593;SDS011;19920;52.242;20.940;2023-08-08T00:04:08;3.22;;;1.80;;
33593;SDS011;19920;52.242;20.940;2023-08-08T00:06:35;4.90;;;1.63;;
33593;SDS011;19920;52.242;20.940;2023-08-08T00:09:01;3.78;;;1.50;;
33593;SDS011;19920;52.242;20.940;2023-08-08T00:11:28;4.05;;;1.65;;
33593;SDS011;19920;52.242;20.940;2023-08-08T00:13:55;3.80;;;1.42;;
33593;SDS011;19920;52.242;20.940;2023-08-08T00:16:20;4.00;;;1.83;;
33593;SDS011;19920;52.242;20.940;2023-08-08T00:18:46;4.60;;;1.58;;
33593;SDS011;19920;52.242;20.940;2023-08-08T00:21:14;2.92;;;1.73;;
33593;SDS011;19920;52.242;20.940;2023-08-08T00:23:40;5.07;;;1.40;;
33593;SDS011;19920;52.242;20.940;2023-08-08T00:26:05;3.30;;;1.52;;
33593;SDS011;19920;52.242;20.940;2023-08-08T00:28:31;3.42;;;1.50;;
33593;SDS011;19920;52.242;20.940;2023-08-08T00:30:56;5.05;;;1.92;;
33593;SDS011;19920;52.242;20.940;2023-08-08T00:33:22;5.13;;;1.60;;
33593;SDS011;19920;52.242;20.940;2023-08-08T00:35:47;4.85;;;1.80;;
33593;SDS011;19920;52.242;20.940;2023-08-08T00:38:13;3.50;;;1.45;;
33593;SDS011;19920;52.242;20.940;2023-08-08T00:40:39;5.28;;;1.40;;
33593;SDS011;19920;52.242;20.940;2023-08-08T00:43:04;5.63;;;1.75;;
33593;SDS011;19920;52.242;20.940;2023-08-08T00:45:30;6.20;;;1.55;;
33593;SDS011;19920;52.242;20.940;2023-08-08T00:47:56;5.53;;;1.50;;
33593;SDS011;19920;52.242;20.940;2023-08-08T00:50:21;5.18;;;1.50;;
33593;SDS011;19920;52.242;20.940;2023-08-08T00:52:48;4.45;;;1.50;;
33593;SDS011;19920;52.242;20.940;2023-08-08T00:55:14;6.10;;;1.83;;
33593;SDS011;19920;52.242;20.940;2023-08-08T00:57:40;2.88;;;1.30;;
33593;SDS011;19920;52.242;20.940;2023-08-08T01:00:06;7.88;;;1.60;;
33593;SDS011;19920;52.242;20.940;2023-08-08T01:02:34;6.75;;;1.65;;
33593;SDS011;19920;52.242;20.940;2023-08-08T01:05:00;7.50;;;2.00;;
33593;SDS011;19920;52.242;20.940;2023-08-08T01:07:37;7.25;;;1.92;;
33593;SDS011;19920;52.242;20.940;2023-08-08T01:12:34;4.35;;;1.75;;
33593;SDS011;19920;52.242;20.940;2023-08-08T01:15:06;5.60;;;2.10;;
33593;SDS011;19920;52.242;20.940;2023-08-08T01:17:34;4.45;;;1.77;;
33593;SDS011;19920;52.242;20.940;2023-08-08T01:20:02;4.55;;;1.70;;
33593;SDS011;19920;52.242;20.940;2023-08-08T01:22:32;5.60;;;2.08;;
33593;SDS011;19920;52.242;20.940;2023-08-08T01:25:21;5.22;;;1.42;;
33593;SDS011;19920;52.242;20.940;2023-08-08T01:27:48;9.43;;;1.88;;
33593;SDS011;19920;52.242;20.940;2023-08-08T01:30:14;7.78;;;1.70;;
33593;SDS011;19920;52.242;20.940;2023-08-08T01:32:40;5.00;;;1.85;;
33593;SDS011;19920;52.242;20.940;2023-08-08T01:35:05;3.90;;;1.50;;
33593;SDS011;19920;52.242;20.940;2023-08-08T01:37:34;5.15;;;1.73;;
33593;SDS011;19920;52.242;20.940;2023-08-08T01:40:04;4.80;;;1.80;;
33593;SDS011;19920;52.242;20.940;2023-08-08T01:42:31;4.55;;;1.75;;
33593;SDS011;19920;52.242;20.940;2023-08-08T01:44:57;7.68;;;1.85;;
33593;SDS011;19920;52.242;20.940;2023-08-08T01:47:23;5.20;;;1.70;;
33593;SDS011;19920;52.242;20.940;2023-08-08T01:49:49;4.90;;;1.83;;
33593;SDS011;19920;52.242;20.940;2023-08-08T01:52:15;7.50;;;1.30;;
33593;SDS011;19920;52.242;20.940;2023-08-08T01:54:40;6.25;;;1.70;;
33593;SDS011;19920;52.242;20.940;2023-08-08T01:57:07;5.05;;;1.58;;
33593;SDS011;19920;52.242;20.940;2023-08-08T01:59:32;3.42;;;1.40;;
33593;SDS011;19920;52.242;20.940;2023-08-08T02:01:58;3.85;;;1.95;;
33593;SDS011;19920;52.242;20.940;2023-08-08T02:04:24;5.53;;;1.70;;
33593;SDS011;19920;52.242;20.940;2023-08-08T02:06:49;5.72;;;1.98;;
33593;SDS011;19920;52.242;20.940;2023-08-08T02:09:15;8.70;;;2.10;;
33593;SDS011;19920;52.242;20.940;2023-08-08T02:11:40;4.78;;;1.70;;
33593;SDS011;19920;52.242;20.940;2023-08-08T02:14:06;5.15;;;1.75;;
33593;SDS011;19920;52.242;20.940;2023-08-08T02:16:32;5.70;;;1.55;;
33593;SDS011;19920;52.242;20.940;2023-08-08T02:18:57;6.22;;;2.08;;
33593;SDS011;19920;52.242;20.940;2023-08-08T02:21:23;7.32;;;1.70;;
33593;SDS011;19920;52.242;20.940;2023-08-08T02:23:49;7.45;;;1.85;;
33593;SDS011;19920;52.242;20.940;2023-08-08T02:26:14;6.90;;;1.90;;
33593;SDS011;19920;52.242;20.940;2023-08-08T02:28:40;4.30;;;1.80;;
33593;SDS011;19920;52.242;20.940;2023-08-08T02:31:06;6.88;;;1.77;;
33593;SDS011;19920;52.242;20.940;2023-08-08T02:33:31;6.03;;;1.60;;
33593;SDS011;19920;52.242;20.940;2023-08-08T02:35:57;4.90;;;1.70;;
33593;SDS011;19920;52.242;20.940;2023-08-08T02:38:22;8.30;;;1.92;;
33593;SDS011;19920;52.242;20.940;2023-08-08T02:40:48;4.63;;;1.60;;
33593;SDS011;19920;52.242;20.940;2023-08-08T02:43:14;6.55;;;2.30;;
33593;SDS011;19920;52.242;20.940;2023-08-08T02:45:39;4.93;;;1.67;;
33593;SDS011;19920;52.242;20.940;2023-08-08T02:48:05;7.57;;;1.80;;
33593;SDS011;19920;52.242;20.940;2023-08-08T02:50:30;6.57;;;1.98;;
33593;SDS011;19920;52.242;20.940;2023-08-08T02:52:56;4.00;;;1.75;;
33593;SDS011;19920;52.242;20.940;2023-08-08T02:55:22;4.88;;;1.52;;
33593;SDS011;19920;52.242;20.940;2023-08-08T02:57:47;7.13;;;1.60;;
33593;SDS011;19920;52.242;20.940;2023-08-08T03:00:13;9.75;;;2.15;;
33593;SDS011;19920;52.242;20.940;2023-08-08T03:02:38;5.35;;;1.80;;
33593;SDS011;19920;52.242;20.940;2023-08-08T03:05:04;4.28;;;1.73;;
33593;SDS011;19920;52.242;20.940;2023-08-08T03:07:30;7.82;;;1.77;;
33593;SDS011;19920;52.242;20.940;2023-08-08T03:09:56;5.80;;;1.85;;
33593;SDS011;19920;52.242;20.940;2023-08-08T03:12:21;5.53;;;2.20;;
33593;SDS011;19920;52.242;20.940;2023-08-08T03:14:47;5.05;;;1.83;;
33593;SDS011;19920;52.242;20.940;2023-08-08T03:17:13;5.85;;;1.90;;
33593;SDS011;19920;52.242;20.940;2023-08-08T03:19:38;5.93;;;1.83;;
33593;SDS011;19920;52.242;20.940;2023-08-08T03:22:04;5.28;;;1.60;;
33593;SDS011;19920;52.242;20.940;2023-08-08T03:24:29;5.35;;;1.58;;
33593;SDS011;19920;52.242;20.940;2023-08-08T03:26:55;5.70;;;1.90;;
33593;SDS011;19920;52.242;20.940;2023-08-08T03:29:21;5.30;;;1.85;;
33593;SDS011;19920;52.242;20.940;2023-08-08T03:31:46;7.13;;;1.80;;
33593;SDS011;19920;52.242;20.940;2023-08-08T03:34:12;3.97;;;1.70;;
33593;SDS011;19920;52.242;20.940;2023-08-08T03:36:37;4.55;;;2.03;;
33593;SDS011;19920;52.242;20.940;2023-08-08T03:39:03;5.45;;;1.75;;
33593;SDS011;19920;52.242;20.940;2023-08-08T03:41:28;5.43;;;1.60;;
33593;SDS011;19920;52.242;20.940;2023-08-08T03:43:54;5.50;;;1.90;;
33593;SDS011;19920;52.242;20.940;2023-08-08T03:46:21;7.13;;;1.90;;
33593;SDS011;19920;52.242;20.940;2023-08-08T03:48:47;6.43;;;1.60;;
33593;SDS011;19920;52.242;20.940;2023-08-08T03:51:12;4.45;;;1.95;;
33593;SDS011;19920;52.242;20.940;2023-08-08T03:53:38;5.97;;;1.63;;
33593;SDS011;19920;52.242;20.940;2023-08-08T03:56:04;6.70;;;1.88;;
33593;SDS011;19920;52.242;20.940;2023-08-08T03:58:29;8.60;;;1.70;;
33593;SDS011;19920;52.242;20.940;2023-08-08T04:00:55;9.35;;;2.50;;
33593;SDS011;19920;52.242;20.940;2023-08-08T04:03:21;3.35;;;1.75;;
33593;SDS011;19920;52.242;20.940;2023-08-08T04:05:47;4.30;;;1.50;;
33593;SDS011;19920;52.242;20.940;2023-08-08T04:08:13;3.60;;;1.60;;
33593;SDS011;19920;52.242;20.940;2023-08-08T04:10:39;4.75;;;1.73;;
33593;SDS011;19920;52.242;20.940;2023-08-08T04:13:04;7.70;;;1.77;;
33593;SDS011;19920;52.242;20.940;2023-08-08T04:15:30;7.10;;;1.95;;
33593;SDS011;19920;52.242;20.940;2023-08-08T04:17:55;7.95;;;1.80;;
33593;SDS011;19920;52.242;20.940;2023-08-08T04:20:21;7.00;;;1.98;;
33593;SDS011;19920;52.242;20.940;2023-08-08T04:22:47;4.65;;;1.73;;
33593;SDS011;19920;52.242;20.940;2023-08-08T04:25:13;10.90;;;1.88;;
33593;SDS011;19920;52.242;20.940;2023-08-08T04:27:40;4.80;;;1.50;;
33593;SDS011;19920;52.242;20.940;2023-08-08T04:30:06;5.78;;;1.70;;
33593;SDS011;19920;52.242;20.940;2023-08-08T04:32:32;6.90;;;1.63;;
33593;SDS011;19920;52.242;20.940;2023-08-08T04:34:57;5.28;;;1.63;;
33593;SDS011;19920;52.242;20.940;2023-08-08T04:37:23;4.57;;;1.65;;
33593;SDS011;19920;52.242;20.940;2023-08-08T04:39:49;3.58;;;1.55;;
33593;SDS011;19920;52.242;20.940;2023-08-08T04:42:14;3.60;;;1.52;;
33593;SDS011;19920;52.242;20.940;2023-08-08T04:44:40;5.22;;;1.65;;
33593;SDS011;19920;52.242;20.940;2023-08-08T04:47:05;6.57;;;1.70;;
33593;SDS011;19920;52.242;20.940;2023-08-08T04:49:31;4.85;;;1.88;;
33593;SDS011;19920;52.242;20.940;2023-08-08T04:51:56;5.03;;;1.45;;
33593;SDS011;19920;52.242;20.940;2023-08-08T04:54:22;5.20;;;1.90;;
33593;SDS011;19920;52.242;20.940;2023-08-08T04:56:48;6.95;;;1.60;;
33593;SDS011;19920;52.242;20.940;2023-08-08T04:59:13;8.38;;;1.50;;
33593;SDS011;19920;52.242;20.940;2023-08-08T05:01:39;4.85;;;1.63;;
33593;SDS011;19920;52.242;20.940;2023-08-08T05:04:04;6.07;;;1.42;;
33593;SDS011;19920;52.242;20.940;2023-08-08T05:06:30;3.88;;;1.58;;
33593;SDS011;19920;52.242;20.940;2023-08-08T05:08:56;3.70;;;1.70;;
33593;SDS011;19920;52.242;20.940;2023-08-08T05:11:21;5.75;;;1.48;;
33593;SDS011;19920;52.242;20.940;2023-08-08T05:13:47;4.97;;;1.40;;
33593;SDS011;19920;52.242;20.940;2023-08-08T05:16:13;4.60;;;1.60;;
33593;SDS011;19920;52.242;20.940;2023-08-08T05:18:39;5.55;;;1.50;;
33593;SDS011;19920;52.242;20.940;2023-08-08T05:21:05;4.50;;;1.70;;
33593;SDS011;19920;52.242;20.940;2023-08-08T05:23:31;3.83;;;1.75;;
33593;SDS011;19920;52.242;20.940;2023-08-08T05:25:56;4.38;;;1.60;;
33593;SDS011;19920;52.242;20.940;2023-08-08T05:28:22;4.20;;;1.60;;
33593;SDS011;19920;52.242;20.940;2023-08-08T05:30:47;5.38;;;1.73;;
33593;SDS011;19920;52.242;20.940;2023-08-08T05:33:13;6.22;;;1.60;;
33593;SDS011;19920;52.242;20.940;2023-08-08T05:35:39;6.68;;;1.48;;
33593;SDS011;19920;52.242;20.940;2023-08-08T05:38:04;5.65;;;1.65;;
33593;SDS011;19920;52.242;20.940;2023-08-08T05:40:30;5.03;;;1.50;;
33593;SDS011;19920;52.242;20.940;2023-08-08T05:42:55;8.25;;;1.90;;
33593;SDS011;19920;52.242;20.940;2023-08-08T05:45:21;7.20;;;1.73;;
33593;SDS011;19920;52.242;20.940;2023-08-08T05:47:46;6.75;;;1.70;;
33593;SDS011;19920;52.242;20.940;2023-08-08T05:50:12;6.55;;;1.90;;
33593;SDS011;19920;52.242;20.940;2023-08-08T05:52:37;4.25;;;1.88;;
33593;SDS011;19920;52.242;20.940;2023-08-08T05:55:03;4.60;;;2.00;;
33593;SDS011;19920;52.242;20.940;2023-08-08T05:57:29;6.32;;;1.75;;
33593;SDS011;19920;52.242;20.940;2023-08-08T05:59:54;4.88;;;1.73;;
33593;SDS011;19920;52.242;20.940;2023-08-08T06:02:20;6.18;;;1.70;;
33593;SDS011;19920;52.242;20.940;2023-08-08T06:04:46;5.35;;;1.67;;
33593;SDS011;19920;52.242;20.940;2023-08-08T06:07:12;6.13;;;1.63;;
33593;SDS011;19920;52.242;20.940;2023-08-08T06:09:37;5.05;;;1.85;;
33593;SDS011;19920;52.242;20.940;2023-08-08T06:12:03;6.78;;;1.67;;
33593;SDS011;19920;52.242;20.940;2023-08-08T06:14:30;6.32;;;2.20;;
33593;SDS011;19920;52.242;20.940;2023-08-08T06:16:55;4.32;;;1.35;;
33593;SDS011;19920;52.242;20.940;2023-08-08T06:19:21;6.10;;;1.60;;
33593;SDS011;19920;52.242;20.940;2023-08-08T06:21:47;5.25;;;1.63;;
33593;SDS011;19920;52.242;20.940;2023-08-08T06:24:12;6.20;;;1.95;;
33593;SDS011;19920;52.242;20.940;2023-08-08T06:26:38;6.53;;;1.80;;
33593;SDS011;19920;52.242;20.940;2023-08-08T06:29:04;6.45;;;1.80;;
33593;SDS011;19920;52.242;20.940;2023-08-08T06:31:29;6.18;;;2.00;;
33593;SDS011;19920;52.242;20.940;2023-08-08T06:33:55;6.65;;;1.70;;
33593;SDS011;19920;52.242;20.940;2023-08-08T06:36:21;6.90;;;1.55;;
33593;SDS011;19920;52.242;20.940;2023-08-08T06:38:46;5.60;;;1.50;;
33593;SDS011;19920;52.242;20.940;2023-08-08T06:41:12;7.57;;;1.92;;
33593;SDS011;19920;52.242;20.940;2023-08-08T06:43:37;10.05;;;2.10;;
33593;SDS011;19920;52.242;20.940;2023-08-08T06:46:04;4.70;;;1.63;;
33593;SDS011;19920;52.242;20.940;2023-08-08T06:48:29;8.43;;;2.20;;
33593;SDS011;19920;52.242;20.940;2023-08-08T06:50:55;5.88;;;1.77;;
33593;SDS011;19920;52.242;20.940;2023-08-08T06:53:21;6.07;;;1.90;;
33593;SDS011;19920;52.242;20.940;2023-08-08T06:55:46;7.93;;;1.80;;
33593;SDS011;19920;52.242;20.940;2023-08-08T06:58:12;7.18;;;2.40;;
33593;SDS011;19920;52.242;20.940;2023-08-08T07:00:37;4.60;;;1.67;;
33593;SDS011;19920;52.242;20.940;2023-08-08T07:03:03;4.13;;;1.70;;
33593;SDS011;19920;52.242;20.940;2023-08-08T07:05:29;10.93;;;2.15;;
33593;SDS011;19920;52.242;20.940;2023-08-08T07:07:55;5.53;;;1.63;;
33593;SDS011;19920;52.242;20.940;2023-08-08T07:10:20;6.38;;;1.67;;
33593;SDS011;19920;52.242;20.940;2023-08-08T07:12:46;5.80;;;1.70;;
33593;SDS011;19920;52.242;20.940;2023-08-08T07:15:12;5.22;;;1.67;;
33593;SDS011;19920;52.242;20.940;2023-08-08T07:17:37;6.22;;;1.90;;
33593;SDS011;19920;52.242;20.940;2023-08-08T07:20:03;4.72;;;1.55;;
33593;SDS011;19920;52.242;20.940;2023-08-08T07:22:30;5.03;;;1.48;;
33593;SDS011;19920;52.242;20.940;2023-08-08T07:24:57;6.68;;;1.50;;
33593;SDS011;19920;52.242;20.940;2023-08-08T07:27:23;5.40;;;1.92;;
33593;SDS011;19920;52.242;20.940;2023-08-08T07:29:48;6.63;;;1.55;;
33593;SDS011;19920;52.242;20.940;2023-08-08T07:32:14;5.00;;;1.40;;
33593;SDS011;19920;52.242;20.940;2023-08-08T07:34:39;7.00;;;1.65;;
33593;SDS011;19920;52.242;20.940;2023-08-08T07:37:05;5.28;;;1.45;;
33593;SDS011;19920;52.242;20.940;2023-08-08T07:39:31;7.72;;;2.05;;
33593;SDS011;19920;52.242;20.940;2023-08-08T07:41:56;5.53;;;1.50;;
33593;SDS011;19920;52.242;20.940;2023-08-08T07:44:22;6.03;;;1.70;;
33593;SDS011;19920;52.242;20.940;2023-08-08T07:46:48;7.57;;;1.80;;
33593;SDS011;19920;52.242;20.940;2023-08-08T07:49:13;5.32;;;1.60;;
33593;SDS011;19920;52.242;20.940;2023-08-08T07:51:39;6.60;;;1.70;;
33593;SDS011;19920;52.242;20.940;2023-08-08T07:54:05;7.97;;;1.95;;
33593;SDS011;19920;52.242;20.940;2023-08-08T07:56:33;3.47;;;1.38;;
33593;SDS011;19920;52.242;20.940;2023-08-08T07:58:59;6.57;;;1.50;;
33593;SDS011;19920;52.242;20.940;2023-08-08T08:01:26;9.90;;;1.58;;
33593;SDS011;19920;52.242;20.940;2023-08-08T08:03:52;5.03;;;1.35;;
33593;SDS011;19920;52.242;20.940;2023-08-08T08:06:18;4.38;;;1.50;;
33593;SDS011;19920;52.242;20.940;2023-08-08T08:08:43;6.47;;;1.58;;
33593;SDS011;19920;52.242;20.940;2023-08-08T08:11:09;2.92;;;1.40;;
33593;SDS011;19920;52.242;20.940;2023-08-08T08:13:34;4.68;;;1.55;;
33593;SDS011;19920;52.242;20.940;2023-08-08T08:16:00;5.80;;;1.58;;
33593;SDS011;19920;52.242;20.940;2023-08-08T08:18:26;4.22;;;1.75;;
33593;SDS011;19920;52.242;20.940;2023-08-08T08:20:52;5.78;;;1.80;;
33593;SDS011;19920;52.242;20.940;2023-08-08T08:23:17;6.10;;;1.42;;
33593;SDS011;19920;52.242;20.940;2023-08-08T08:25:43;6.10;;;1.60;;
33593;SDS011;19920;52.242;20.940;2023-08-08T08:28:09;6.78;;;1.60;;
33593;SDS011;19920;52.242;20.940;2023-08-08T08:30:34;6.63;;;1.60;;
33593;SDS011;19920;52.242;20.940;2023-08-08T08:33:01;5.55;;;1.50;;
33593;SDS011;19920;52.242;20.940;2023-08-08T08:35:29;4.38;;;1.60;;
33593;SDS011;19920;52.242;20.940;2023-08-08T08:37:54;4.63;;;1.70;;
33593;SDS011;19920;52.242;20.940;2023-08-08T08:40:20;3.70;;;1.52;;
33593;SDS011;19920;52.242;20.940;2023-08-08T08:42:45;7.13;;;1.38;;
33593;SDS011;19920;52.242;20.940;2023-08-08T08:45:13;4.38;;;1.58;;
33593;SDS011;19920;52.242;20.940;2023-08-08T08:47:41;3.40;;;1.40;;
33593;SDS011;19920;52.242;20.940;2023-08-08T08:50:10;3.67;;;1.40;;
33593;SDS011;19920;52.242;20.940;2023-08-08T08:52:36;6.53;;;1.23;;
33593;SDS011;19920;52.242;20.940;2023-08-08T08:55:02;6.43;;;1.50;;
33593;SDS011;19920;52.242;20.940;2023-08-08T08:57:29;7.35;;;1.60;;
33593;SDS011;19920;52.242;20.940;2023-08-08T08:59:54;3.40;;;1.30;;
33593;SDS011;19920;52.242;20.940;2023-08-08T09:02:20;6.07;;;1.50;;
33593;SDS011;19920;52.242;20.940;2023-08-08T09:04:46;5.72;;;1.50;;
33593;SDS011;19920;52.242;20.940;2023-08-08T09:07:12;5.10;;;1.50;;
33593;SDS011;19920;52.242;20.940;2023-08-08T09:09:41;3.95;;;1.20;;
33593;SDS011;19920;52.242;20.940;2023-08-08T09:12:08;5.90;;;1.48;;
33593;SDS011;19920;52.242;20.940;2023-08-08T09:14:33;6.03;;;1.10;;
33593;SDS011;19920;52.242;20.940;2023-08-08T09:17:09;4.47;;;1.67;;
33593;SDS011;19920;52.242;20.940;2023-08-08T09:19:41;10.38;;;1.63;;
33593;SDS011;19920;52.242;20.940;2023-08-08T09:22:12;7.95;;;1.35;;
33593;SDS011;19920;52.242;20.940;2023-08-08T09:24:42;3.22;;;1.13;;
33593;SDS011;19920;52.242;20.940;2023-08-08T09:27:08;8.02;;;1.38;;
33593;SDS011;19920;52.242;20.940;2023-08-08T09:29:35;3.97;;;1.20;;
33593;SDS011;19920;52.242;20.940;2023-08-08T09:32:04;2.40;;;1.10;;
33593;SDS011;19920;52.242;20.940;2023-08-08T09:34:31;4.47;;;1.17;;
33593;SDS011;19920;52.242;20.940;2023-08-08T09:36:57;3.50;;;0.98;;
33593;SDS011;19920;52.242;20.940;2023-08-08T09:39:23;6.93;;;1.35;;
33593;SDS011;19920;52.242;20.940;2023-08-08T09:41:49;3.90;;;1.20;;
33593;SDS011;19920;52.242;20.940;2023-08-08T09:44:15;6.63;;;1.30;;
33593;SDS011;19920;52.242;20.940;2023-08-08T09:46:41;4.50;;;1.00;;
33593;SDS011;19920;52.242;20.940;2023-08-08T09:49:07;4.60;;;1.25;;
33593;SDS011;19920;52.242;20.940;2023-08-08T09:51:37;6.10;;;1.27;;
33593;SDS011;19920;52.242;20.940;2023-08-08T09:54:03;5.18;;;1.30;;
33593;SDS011;19920;52.242;20.940;2023-08-08T09:56:31;4.07;;;1.17;;
33593;SDS011;19920;52.242;20.940;2023-08-08T09:58:58;4.57;;;1.10;;
33593;SDS011;19920;52.242;20.940;2023-08-08T10:01:25;4.70;;;1.38;;
33593;SDS011;19920;52.242;20.940;2023-08-08T10:03:52;4.80;;;1.25;;
33593;SDS011;19920;52.242;20.940;2023-08-08T10:06:18;3.97;;;1.10;;
33593;SDS011;19920;52.242;20.940;2023-08-08T10:08:44;5.82;;;1.20;;
33593;SDS011;19920;52.242;20.940;2023-08-08T10:11:10;2.83;;;1.13;;
33593;SDS011;19920;52.242;20.940;2023-08-08T10:13:37;3.20;;;1.20;;
33593;SDS011;19920;52.242;20.940;2023-08-08T10:16:04;6.95;;;1.30;;
33593;SDS011;19920;52.242;20.940;2023-08-08T10:18:33;5.28;;;1.27;;
33593;SDS011;19920;52.242;20.940;2023-08-08T10:20:59;8.70;;;2.10;;
33593;SDS011;19920;52.242;20.940;2023-08-08T10:23:25;5.57;;;1.60;;
33593;SDS011;19920;52.242;20.940;2023-08-08T10:25:59;3.88;;;1.20;;
33593;SDS011;19920;52.242;20.940;2023-08-08T10:28:27;9.43;;;1.00;;
33593;SDS011;19920;52.242;20.940;2023-08-08T10:30:54;14.27;;;1.73;;
33593;SDS011;19920;52.242;20.940;2023-08-08T10:33:27;3.25;;;1.10;;
33593;SDS011;19920;52.242;20.940;2023-08-08T10:36:04;6.85;;;1.00;;
33593;SDS011;19920;52.242;20.940;2023-08-08T10:38:40;3.35;;;1.27;;
33593;SDS011;19920;52.242;20.940;2023-08-08T10:41:26;3.72;;;0.90;;
33593;SDS011;19920;52.242;20.940;2023-08-08T10:43:52;2.83;;;1.05;;
33593;SDS011;19920;52.242;20.940;2023-08-08T10:48:50;3.15;;;1.10;;
33593;SDS011;19920;52.242;20.940;2023-08-08T10:51:17;3.05;;;0.82;;
33593;SDS011;19920;52.242;20.940;2023-08-08T10:53:44;4.63;;;0.90;;
33593;SDS011;19920;52.242;20.940;2023-08-08T10:56:12;5.10;;;1.20;;
33593;SDS011;19920;52.242;20.940;2023-08-08T10:58:42;1.95;;;1.13;;
33593;SDS011;19920;52.242;20.940;2023-08-08T11:01:13;5.68;;;1.20;;
33593;SDS011;19920;52.242;20.940;2023-08-08T11:03:39;5.85;;;1.23;;
33593;SDS011;19920;52.242;20.940;2023-08-08T11:06:06;5.57;;;0.85;;
33593;SDS011;19920;52.242;20.940;2023-08-08T11:08:33;2.67;;;1.10;;
33593;SDS011;19920;52.242;20.940;2023-08-08T11:11:01;2.92;;;1.00;;
33593;SDS011;19920;52.242;20.940;2023-08-08T11:13:27;2.28;;;0.93;;
33593;SDS011;19920;52.242;20.940;2023-08-08T11:15:52;6.32;;;0.90;;
33593;SDS011;19920;52.242;20.940;2023-08-08T11:18:18;2.67;;;1.00;;
33593;SDS011;19920;52.242;20.940;2023-08-08T11:20:44;3.72;;;1.13;;
33593;SDS011;19920;52.242;20.940;2023-08-08T11:23:10;5.65;;;1.00;;
33593;SDS011;19920;52.242;20.940;2023-08-08T11:25:39;4.20;;;0.90;;
33593;SDS011;19920;52.242;20.940;2023-08-08T11:28:06;2.38;;;0.77;;
33593;SDS011;19920;52.242;20.940;2023-08-08T11:30:33;1.67;;;0.73;;
33593;SDS011;19920;52.242;20.940;2023-08-08T11:35:28;2.42;;;0.80;;
33593;SDS011;19920;52.242;20.940;2023-08-08T11:37:55;4.63;;;1.10;;
33593;SDS011;19920;52.242;20.940;2023-08-08T11:40:22;4.85;;;0.98;;
33593;SDS011;19920;52.242;20.940;2023-08-08T11:42:50;2.00;;;0.88;;
33593;SDS011;19920;52.242;20.940;2023-08-08T11:45:17;3.88;;;0.80;;
33593;SDS011;19920;52.242;20.940;2023-08-08T11:47:43;2.63;;;0.82;;
33593;SDS011;19920;52.242;20.940;2023-08-08T11:50:10;2.08;;;0.82;;
33593;SDS011;19920;52.242;20.940;2023-08-08T11:52:39;3.42;;;0.75;;
33593;SDS011;19920;52.242;20.940;2023-08-08T11:55:07;3.35;;;1.00;;
33593;SDS011;19920;52.242;20.940;2023-08-08T11:57:35;1.88;;;0.80;;
33593;SDS011;19920;52.242;20.940;2023-08-08T12:00:03;1.55;;;0.90;;
33593;SDS011;19920;52.242;20.940;2023-08-08T12:02:33;2.53;;;0.82;;
33593;SDS011;19920;52.242;20.940;2023-08-08T12:05:09;3.65;;;0.80;;
33593;SDS011;19920;52.242;20.940;2023-08-08T12:07:36;7.28;;;0.77;;
33593;SDS011;19920;52.242;20.940;2023-08-08T12:10:03;3.13;;;0.80;;
33593;SDS011;19920;52.242;20.940;2023-08-08T12:12:31;2.75;;;1.00;;
33593;SDS011;19920;52.242;20.940;2023-08-08T12:15:03;2.97;;;1.05;;
33593;SDS011;19920;52.242;20.940;2023-08-08T12:17:31;1.58;;;0.80;;
33593;SDS011;19920;52.242;20.940;2023-08-08T12:20:00;5.10;;;0.82;;
33593;SDS011;19920;52.242;20.940;2023-08-08T12:22:28;1.67;;;0.80;;
33593;SDS011;19920;52.242;20.940;2023-08-08T12:24:53;2.20;;;0.85;;
33593;SDS011;19920;52.242;20.940;2023-08-08T12:27:19;3.55;;;0.90;;
33593;SDS011;19920;52.242;20.940;2023-08-08T12:29:44;2.40;;;0.90;;
33593;SDS011;19920;52.242;20.940;2023-08-08T12:32:10;2.47;;;1.25;;
33593;SDS011;19920;52.242;20.940;2023-08-08T12:34:36;4.05;;;0.98;;
33593;SDS011;19920;52.242;20.940;2023-08-08T12:37:01;2.53;;;0.80;;
33593;SDS011;19920;52.242;20.940;2023-08-08T12:39:27;1.83;;;0.70;;
33593;SDS011;19920;52.242;20.940;2023-08-08T12:41:53;5.68;;;0.95;;
33593;SDS011;19920;52.242;20.940;2023-08-08T12:44:19;1.23;;;0.75;;
33593;SDS011;19920;52.242;20.940;2023-08-08T12:46:45;2.58;;;0.90;;
33593;SDS011;19920;52.242;20.940;2023-08-08T12:49:10;4.38;;;0.80;;
33593;SDS011;19920;52.242;20.940;2023-08-08T12:51:36;2.88;;;0.80;;
33593;SDS011;19920;52.242;20.940;2023-08-08T12:54:02;2.35;;;0.85;;
33593;SDS011;19920;52.242;20.940;2023-08-08T12:56:28;3.40;;;1.00;;
33593;SDS011;19920;52.242;20.940;2023-08-08T12:58:53;1.80;;;1.00;;
33593;SDS011;19920;52.242;20.940;2023-08-08T13:01:19;4.80;;;1.10;;
33593;SDS011;19920;52.242;20.940;2023-08-08T13:03:44;1.85;;;0.80;;
33593;SDS011;19920;52.242;20.940;2023-08-08T13:06:10;1.65;;;0.88;;
33593;SDS011;19920;52.242;20.940;2023-08-08T13:08:36;9.82;;;1.58;;
33593;SDS011;19920;52.242;20.940;2023-08-08T13:11:02;2.78;;;1.00;;
33593;SDS011;19920;52.242;20.940;2023-08-08T13:13:28;2.38;;;0.80;;
33593;SDS011;19920;52.242;20.940;2023-08-08T13:15:54;4.82;;;0.90;;
33593;SDS011;19920;52.242;20.940;2023-08-08T13:18:19;1.88;;;0.70;;
33593;SDS011;19920;52.242;20.940;2023-08-08T13:20:45;1.58;;;0.65;;
33593;SDS011;19920;52.242;20.940;2023-08-08T13:23:11;5.55;;;1.10;;
33593;SDS011;19920;52.242;20.940;2023-08-08T13:25:36;3.05;;;0.77;;
33593;SDS011;19920;52.242;20.940;2023-08-08T13:28:02;4.93;;;1.08;;
33593;SDS011;19920;52.242;20.940;2023-08-08T13:30:28;2.13;;;0.93;;
33593;SDS011;19920;52.242;20.940;2023-08-08T13:32:55;2.53;;;1.05;;
33593;SDS011;19920;52.242;20.940;2023-08-08T13:35:21;4.20;;;0.77;;
33593;SDS011;19920;52.242;20.940;2023-08-08T13:37:46;3.25;;;1.30;;
33593;SDS011;19920;52.242;20.940;2023-08-08T13:40:17;1.83;;;1.10;;
33593;SDS011;19920;52.242;20.940;2023-08-08T13:42:43;2.47;;;0.95;;
33593;SDS011;19920;52.242;20.940;2023-08-08T13:45:12;6.57;;;0.77;;
33593;SDS011;19920;52.242;20.940;2023-08-08T13:47:45;1.92;;;0.80;;
33593;SDS011;19920;52.242;20.940;2023-08-08T13:50:11;2.97;;;0.82;;
33593;SDS011;19920;52.242;20.940;2023-08-08T13:52:38;2.33;;;0.82;;
33593;SDS011;19920;52.242;20.940;2023-08-08T13:55:05;1.85;;;0.80;;
33593;SDS011;19920;52.242;20.940;2023-08-08T13:57:31;4.65;;;0.88;;
33593;SDS011;19920;52.242;20.940;2023-08-08T13:59:56;3.92;;;0.80;;
33593;SDS011;19920;52.242;20.940;2023-08-08T14:02:22;1.25;;;0.80;;
33593;SDS011;19920;52.242;20.940;2023-08-08T14:04:48;1.63;;;0.75;;
33593;SDS011;19920;52.242;20.940;2023-08-08T14:07:14;2.15;;;0.90;;
33593;SDS011;19920;52.242;20.940;2023-08-08T14:09:39;1.50;;;0.82;;
33593;SDS011;19920;52.242;20.940;2023-08-08T14:12:05;3.90;;;1.00;;
33593;SDS011;19920;52.242;20.940;2023-08-08T14:14:31;2.03;;;0.90;;
33593;SDS011;19920;52.242;20.940;2023-08-08T14:16:56;5.80;;;0.90;;
33593;SDS011;19920;52.242;20.940;2023-08-08T14:19:22;2.35;;;1.00;;
33593;SDS011;19920;52.242;20.940;2023-08-08T14:21:48;2.40;;;1.00;;
33593;SDS011;19920;52.242;20.940;2023-08-08T14:24:14;3.03;;;0.80;;
33593;SDS011;19920;52.242;20.940;2023-08-08T14:26:39;1.98;;;0.95;;
33593;SDS011;19920;52.242;20.940;2023-08-08T14:29:05;3.53;;;0.90;;
33593;SDS011;19920;52.242;20.940;2023-08-08T14:31:30;1.88;;;0.88;;
33593;SDS011;19920;52.242;20.940;2023-08-08T14:33:56;3.95;;;0.90;;
33593;SDS011;19920;52.242;20.940;2023-08-08T14:36:22;1.85;;;0.90;;